Time;durP1;ratioP1;P1;durP2;ratioP2;P2;SDS_P1;SDS_P2;PMS_P1;PMS_P2;Temp;Humidity;BMP_temperature;BMP_pressure;BME280_temperature;BME280_humidity;BME280_pressure;Samples;Min_cycle;Max_cycle;Signal;HPM_P1;HPM_P2
2021/03/11 00:00:52;;;;;;;55.17;27.95;;;;;;;-0.22;59.13;101131.30;1701327;83;25918;-78
2021/03/11 00:03:22;;;;;;;58.83;30.35;;;;;;;-0.23;59.10;101120.38;1699784;83;28143;-78
2021/03/11 00:05:50;;;;;;;54.42;26.97;;;;;;;-0.26;59.13;101116.66;1674155;83;25812;-78
2021/03/11 00:08:17;;;;;;;55.67;27.42;;;;;;;-0.33;59.10;101106.17;1674263;83;25834;-79
2021/03/11 00:10:44;;;;;;;49.10;26.65;;;;;;;-0.36;59.27;101109.47;1695578;83;26415;-78
2021/03/11 00:13:12;;;;;;;50.10;25.62;;;;;;;-0.38;59.26;101107.42;1676223;83;26551;-77
2021/03/11 00:15:42;;;;;;;57.43;27.80;;;;;;;-0.41;59.35;101101.06;1673925;83;28441;-76
2021/03/11 00:18:11;;;;;;;49.53;25.55;;;;;;;-0.49;59.39;101083.65;1675543;83;25819;-79
2021/03/11 00:20:39;;;;;;;51.08;26.60;;;;;;;-0.44;59.54;101098.16;1674576;83;25728;-78
2021/03/11 00:23:06;;;;;;;48.20;25.97;;;;;;;-0.47;59.60;101100.17;1716026;83;25716;-79
2021/03/11 00:25:35;;;;;;;51.68;26.82;;;;;;;-0.49;59.68;101093.67;1673236;83;25684;-78
2021/03/11 00:28:05;;;;;;;49.08;26.12;;;;;;;-0.51;59.72;101088.99;1674532;83;27626;-78
2021/03/11 00:30:33;;;;;;;51.92;25.50;;;;;;;-0.52;59.71;101089.95;1695308;83;26228;-79
2021/03/11 00:33:01;;;;;;;49.03;23.90;;;;;;;-0.52;59.75;101089.11;1697913;83;26422;-78
2021/03/11 00:35:28;;;;;;;53.30;26.45;;;;;;;-0.57;59.85;101089.88;1673755;83;25821;-79
2021/03/11 00:37:55;;;;;;;52.25;27.02;;;;;;;-0.59;59.75;101083.88;1675733;83;26530;-78
2021/03/11 00:40:23;;;;;;;53.95;27.42;;;;;;;-0.61;59.82;101093.20;1695769;83;28450;-77
2021/03/11 00:42:51;;;;;;;46.85;25.80;;;;;;;-0.60;59.85;101090.11;1698355;83;25979;-76
2021/03/11 00:45:18;;;;;;;53.28;27.95;;;;;;;-0.61;59.83;101085.31;1674468;83;25954;-78
2021/03/11 00:47:47;;;;;;;53.10;27.60;;;;;;;-0.65;59.90;101085.16;1673601;83;25965;-78
2021/03/11 00:50:21;;;;;;;51.83;26.12;;;;;;;-0.65;59.93;101087.78;1697942;83;25374;-78
2021/03/11 00:52:48;;;;;;;57.75;28.47;;;;;;;-0.63;59.99;101089.84;1694331;83;28289;-77
2021/03/11 00:55:19;;;;;;;47.70;25.57;;;;;;;-0.64;59.96;101084.19;1675551;83;25833;-79
2021/03/11 00:57:47;;;;;;;49.27;25.37;;;;;;;-0.67;59.61;101078.30;1674033;83;26525;-80
2021/03/11 01:00:19;;;;;;;48.50;25.37;;;;;;;-0.67;60.01;101083.56;1696579;82;25611;-76
2021/03/11 01:03:09;;;;;;;48.60;26.35;;;;;;;-0.61;59.99;101078.73;1767075;79;26310;-80
2021/03/11 01:05:37;;;;;;;50.85;27.73;;;;;;;-0.68;60.00;101076.14;1711824;82;26453;-78
2021/03/11 01:08:14;;;;;;;55.43;26.35;;;;;;;-0.64;60.11;101076.80;1829988;77;25796;-76
2021/03/11 01:10:42;;;;;;;52.17;25.62;;;;;;;-0.68;60.15;101077.95;1768496;78;26527;-76
2021/03/11 01:13:09;;;;;;;46.60;24.57;;;;;;;-0.64;60.27;101073.67;1768030;79;27518;-78
2021/03/11 01:15:41;;;;;;;50.92;26.05;;;;;;;-0.63;60.18;101081.95;1731716;80;25841;-78
2021/03/11 01:18:10;;;;;;;51.90;26.82;;;;;;;-0.68;60.22;101081.41;1745107;80;25873;-77
2021/03/11 01:20:38;;;;;;;53.63;26.70;;;;;;;-0.67;60.28;101075.21;1743270;80;25852;-77
2021/03/11 01:23:05;;;;;;;54.80;26.90;;;;;;;-0.68;60.44;101072.20;1780614;80;25671;-78
2021/03/11 01:25:32;;;;;;;58.42;28.60;;;;;;;-0.71;60.33;101064.53;1718547;80;27553;-78
2021/03/11 01:27:59;;;;;;;50.33;26.45;;;;;;;-0.74;60.22;101068.67;1733079;80;26591;-78
2021/03/11 01:30:27;;;;;;;56.25;28.67;;;;;;;-0.77;60.40;101059.19;1750800;80;25419;-76
2021/03/11 01:32:54;;;;;;;49.65;25.80;;;;;;;-0.77;60.48;101056.56;1780229;80;26327;-76
2021/03/11 01:35:21;;;;;;;49.25;25.97;;;;;;;-0.75;60.44;101059.58;1725715;81;26084;-78
2021/03/11 01:37:48;;;;;;;48.80;24.90;;;;;;;-0.83;60.35;101037.26;1742329;80;28414;-79
2021/03/11 01:40:16;;;;;;;54.48;28.20;;;;;;;-0.83;60.35;101037.26;1748552;80;25935;-76
2021/03/11 01:42:43;;;;;;;48.15;23.65;;;;;;;-0.82;60.43;101039.42;1778927;80;26005;-78
2021/03/11 01:45:11;;;;;;;48.50;27.00;;;;;;;-0.83;60.42;101032.47;1700931;81;25828;-78
2021/03/11 01:47:38;;;;;;;55.65;27.05;;;;;;;-0.87;60.50;101033.16;1676032;83;26115;-78
2021/03/11 01:50:08;;;;;;;48.17;25.27;;;;;;;-0.87;60.63;101029.67;1682233;82;28428;-78
2021/03/11 01:52:36;;;;;;;;;;;;;;;-0.90;60.66;101025.46;1729268;82;25810;-78
2021/03/11 01:55:05;;;;;;;49.05;24.47;;;;;;;-0.86;60.73;101030.91;1711852;82;25322;-78
2021/03/11 01:57:33;;;;;;;49.38;26.20;;;;;;;-0.90;60.76;101024.14;1707219;82;25876;-78
2021/03/11 02:00:04;;;;;;;49.40;24.25;;;;;;;-0.91;60.78;101021.62;1708583;82;25917;-78
2021/03/11 02:02:35;;;;;;;51.98;25.20;;;;;;;-0.94;60.76;101018.73;1720275;82;27518;-78
2021/03/11 02:05:08;;;;;;;48.30;24.12;;;;;;;-0.95;60.67;101016.21;1713452;82;26519;-78
2021/03/11 02:07:35;;;;;;;49.42;26.15;;;;;;;-0.94;60.75;101014.78;1704725;83;26542;-78
2021/03/11 02:10:06;;;;;;;52.67;24.90;;;;;;;-0.93;60.58;101007.28;1702290;83;26465;-78
2021/03/11 02:12:41;;;;;;;51.63;26.52;;;;;;;-0.93;60.58;101007.28;1727111;82;26312;-79
2021/03/11 02:15:28;;;;;;;52.93;25.55;;;;;;;-0.94;60.70;101002.13;1725797;83;27539;-77
2021/03/11 02:18:18;;;;;;;52.15;26.42;;;;;;;-0.94;60.70;101002.13;1701186;83;26095;-78
2021/03/11 02:20:53;;;;;;;50.55;27.67;;;;;;;-0.97;60.74;100995.29;1702366;83;25804;-78
2021/03/11 02:23:56;;;;;;;49.45;26.68;;;;;;;-0.94;60.82;100995.56;1725940;82;25884;-78
2021/03/11 02:26:47;;;;;;;51.77;25.23;;;;;;;-0.96;60.84;100986.44;1724737;81;25721;-77
2021/03/11 02:29:32;;;;;;;53.80;26.27;;;;;;;-0.99;61.03;100990.61;1700524;83;27618;-80
2021/03/11 02:32:03;;;;;;;49.42;27.25;;;;;;;-0.98;61.01;100980.91;1698504;83;25970;-78
2021/03/11 02:34:41;;;;;;;54.03;26.40;;;;;;;-1.08;60.98;100975.92;1702375;83;25816;-76
2021/03/11 02:37:13;;;;;;;48.78;26.12;;;;;;;-1.08;60.98;100975.92;1701895;83;25814;-78
2021/03/11 02:39:46;;;;;;;51.75;26.70;;;;;;;-1.10;61.02;100978.66;1701961;83;25953;-78
2021/03/11 02:42:13;;;;;;;57.65;27.37;;;;;;;-1.11;61.11;100974.83;1676876;83;27549;-79
2021/03/11 02:44:41;;;;;;;50.30;25.62;;;;;;;-1.13;61.27;100963.55;1697943;83;25838;-78
2021/03/11 02:47:09;;;;;;;52.30;27.00;;;;;;;-1.08;61.22;100968.03;1701279;82;25794;-77
2021/03/11 02:49:38;;;;;;;53.87;27.60;;;;;;;-1.10;60.75;100957.62;1702164;83;26120;-80
2021/03/11 02:52:06;;;;;;;58.90;29.35;;;;;;;-1.10;60.75;100957.62;1709518;83;25788;-77
2021/03/11 02:54:34;;;;;;;58.08;27.22;;;;;;;-1.16;61.12;100952.80;1701471;83;27776;-78
2021/03/11 02:57:04;;;;;;;59.03;30.17;;;;;;;-1.21;61.48;100955.34;1701155;83;25903;-78
2021/03/11 02:59:34;;;;;;;54.98;28.17;;;;;;;-1.25;61.30;100943.36;1701403;83;25903;-78
2021/03/11 03:02:04;;;;;;;57.03;27.05;;;;;;;-1.27;61.32;100955.30;1705983;83;25739;-79
2021/03/11 03:04:33;;;;;;;53.55;26.20;;;;;;;-1.30;61.37;100955.48;1702232;83;25802;-77
2021/03/11 03:07:02;;;;;;;48.65;25.85;;;;;;;-1.31;61.37;100951.66;1677948;82;27368;-78
2021/03/11 03:09:30;;;;;;;51.50;26.85;;;;;;;-1.33;61.39;100958.80;1701225;82;25774;-79
2021/03/11 03:11:58;;;;;;;63.48;28.27;;;;;;;-1.36;61.69;100956.37;1710390;82;25892;-77
2021/03/11 03:14:26;;;;;;;56.30;27.10;;;;;;;-1.37;61.33;100956.02;1703891;82;26283;-81
2021/03/11 03:16:53;;;;;;;53.02;27.35;;;;;;;-1.37;61.33;100956.02;1685772;82;25816;-79
2021/03/11 03:19:22;;;;;;;54.75;28.75;;;;;;;-1.42;61.26;100953.69;1724763;82;27543;-78
2021/03/11 03:21:50;;;;;;;55.03;26.37;;;;;;;-1.48;61.80;100940.12;1707183;82;26028;-78
2021/03/11 03:24:19;;;;;;;61.35;28.47;;;;;;;-1.48;61.80;100940.12;1699440;82;26510;-78
2021/03/11 03:26:46;;;;;;;68.85;32.05;;;;;;;-1.45;61.83;100950.44;1697389;82;25984;-80
2021/03/11 03:29:14;;;;;;;54.67;26.07;;;;;;;-1.46;61.61;100947.42;1698086;83;26534;-78
2021/03/11 03:31:41;;;;;;;53.75;27.73;;;;;;;-1.46;61.61;100947.42;1688123;82;28630;-79
2021/03/11 03:34:09;;;;;;;58.65;27.93;;;;;;;-1.49;61.64;100944.98;1696427;82;25807;-80
2021/03/11 03:36:37;;;;;;;57.53;28.70;;;;;;;-1.51;61.58;100949.04;1699409;83;25806;-78
2021/03/11 03:39:05;;;;;;;52.15;26.30;;;;;;;-1.51;61.70;100946.88;1702757;82;25991;-79
2021/03/11 03:41:36;;;;;;;57.27;26.23;;;;;;;-1.53;61.43;100950.08;1681853;82;25838;-77
2021/03/11 03:44:07;;;;;;;59.23;28.00;;;;;;;-1.54;61.53;100955.83;1701524;82;27614;-78
2021/03/11 03:46:35;;;;;;;58.02;27.48;;;;;;;-1.54;61.53;100955.83;1702133;82;25941;-79
2021/03/11 03:49:04;;;;;;;59.45;27.30;;;;;;;-1.51;61.79;100949.04;1704366;82;25754;-77
2021/03/11 03:51:35;;;;;;;60.92;26.75;;;;;;;-1.58;61.15;100934.16;1686781;82;25846;-79
2021/03/11 03:54:20;;;;;;;58.13;28.35;;;;;;;-1.58;61.15;100934.16;1727701;82;25797;-78
2021/03/11 03:57:01;;;;;;;56.73;27.27;;;;;;;-1.61;61.60;100937.00;1704214;82;27344;-79
2021/03/11 03:59:38;;;;;;;52.25;26.33;;;;;;;-1.58;61.63;100936.78;1702979;82;26119;-80
2021/03/11 04:02:07;;;;;;;56.13;26.87;;;;;;;-1.57;61.63;100934.55;1704903;82;26039;-79
2021/03/11 04:04:41;;;;;;;53.85;28.05;;;;;;;-1.54;61.56;100931.34;1679442;83;26295;-79
2021/03/11 04:07:12;;;;;;;55.70;28.02;;;;;;;-1.62;61.79;100923.95;1704472;82;25856;-79
2021/03/11 04:09:40;;;;;;;57.23;27.85;;;;;;;-1.56;61.66;100920.91;1675544;83;27547;-77
2021/03/11 04:12:10;;;;;;;66.47;32.03;;;;;;;-1.53;61.63;100923.34;1706597;82;26101;-78
2021/03/11 04:14:40;;;;;;;106.95;47.85;;;;;;;-1.53;61.63;100923.34;1722553;81;25428;-79
2021/03/11 04:17:09;;;;;;;102.60;44.18;;;;;;;-1.53;61.52;100923.34;1696259;83;26331;-79
2021/03/11 04:19:37;;;;;;;77.80;38.65;;;;;;;-1.60;61.56;100916.34;1702752;82;26207;-81
2021/03/11 04:22:06;;;;;;;72.87;35.50;;;;;;;-1.60;61.56;100916.34;1711954;82;27718;-79
2021/03/11 04:24:38;;;;;;;61.98;33.02;;;;;;;-1.55;61.25;100923.92;1695223;82;26484;-79
2021/03/11 04:27:07;;;;;;;57.03;30.40;;;;;;;-1.55;61.25;100923.92;1706208;82;25756;-79
2021/03/11 04:29:36;;;;;;;58.25;31.80;;;;;;;-1.58;61.48;100918.86;1701792;82;25922;-77
2021/03/11 04:32:05;;;;;;;63.65;33.53;;;;;;;-1.59;61.50;100914.11;1715076;82;25862;-79
2021/03/11 04:34:33;;;;;;;64.45;39.23;;;;;;;-1.57;61.37;100910.91;1710448;82;28428;-78
2021/03/11 04:37:01;;;;;;;58.05;31.68;;;;;;;-1.57;61.37;100896.92;1670129;82;25833;-77
2021/03/11 04:39:30;;;;;;;54.83;27.90;;;;;;;-1.57;61.37;100896.92;1684756;82;25742;-77
2021/03/11 04:41:58;;;;;;;55.92;28.38;;;;;;;-1.57;61.38;100896.45;1708521;82;26532;-77
2021/03/11 04:44:27;;;;;;;53.98;28.55;;;;;;;-1.56;61.40;100899.90;1715414;82;25824;-78
2021/03/11 04:46:56;;;;;;;58.13;27.77;;;;;;;-1.57;61.37;100899.55;1708601;82;27581;-78
2021/03/11 04:49:26;;;;;;;50.58;25.70;;;;;;;-1.62;61.29;100895.91;1707933;82;26416;-79
2021/03/11 04:51:55;;;;;;;61.63;29.42;;;;;;;-1.66;61.16;100901.00;1708073;82;25812;-79
2021/03/11 04:54:22;;;;;;;54.85;28.00;;;;;;;-1.68;61.25;100892.84;1698495;83;25999;-77
2021/03/11 04:56:50;;;;;;;57.93;28.10;;;;;;;-1.68;61.29;100889.76;1705745;82;25911;-78
2021/03/11 04:59:18;;;;;;;58.15;27.17;;;;;;;-1.65;61.37;100888.72;1683657;82;28294;-78
2021/03/11 05:01:52;;;;;;;52.35;27.00;;;;;;;-1.67;61.32;100884.05;1680906;82;25825;-79
2021/03/11 05:04:20;;;;;;;53.30;26.90;;;;;;;-1.69;61.29;100881.50;1729936;82;25792;-78
2021/03/11 05:06:48;;;;;;;56.45;26.30;;;;;;;-1.70;61.25;100874.58;1710969;82;26147;-78
2021/03/11 05:09:15;;;;;;;52.23;25.20;;;;;;;-1.73;61.17;100872.14;1709526;82;25873;-79
2021/03/11 05:11:43;;;;;;;56.98;26.95;;;;;;;-1.72;61.24;100870.37;1677634;82;27541;-77
2021/03/11 05:14:10;;;;;;;52.50;26.17;;;;;;;-1.71;61.26;100871.57;1691012;82;25360;-77
2021/03/11 05:16:38;;;;;;;53.58;26.75;;;;;;;-1.69;61.20;100870.17;1727146;81;25441;-79
2021/03/11 05:19:05;;;;;;;53.08;26.37;;;;;;;-1.69;61.26;100870.99;1701930;82;25807;-77
2021/03/11 05:21:33;;;;;;;55.15;28.12;;;;;;;-1.71;61.27;100868.94;1701580;82;26189;-81
2021/03/11 05:24:01;;;;;;;50.95;27.27;;;;;;;-1.71;61.34;100858.94;1686419;82;27555;-78
2021/03/11 05:26:28;;;;;;;55.58;25.85;;;;;;;-1.69;61.42;100863.61;1710921;82;26051;-78
2021/03/11 05:28:56;;;;;;;51.92;26.52;;;;;;;-1.66;61.42;100850.25;1686220;82;25845;-77
2021/03/11 05:31:23;;;;;;;47.78;25.23;;;;;;;-1.67;61.40;100849.41;1648346;83;26262;-80
2021/03/11 05:33:50;;;;;;;56.92;26.85;;;;;;;-1.65;61.31;100848.02;1699787;83;26101;-78
2021/03/11 05:36:18;;;;;;;55.98;25.23;;;;;;;-1.67;61.33;100837.59;1690569;82;27532;-78
2021/03/11 05:38:46;;;;;;;56.15;26.37;;;;;;;-1.66;61.47;100840.59;1733119;82;26327;-80
2021/03/11 05:41:14;;;;;;;51.00;26.42;;;;;;;-1.61;61.37;100828.01;1725411;81;26385;-77
2021/03/11 05:43:42;;;;;;;48.83;24.75;;;;;;;-1.61;61.37;100828.01;1708747;81;26395;-77
2021/03/11 05:46:13;;;;;;;52.88;25.62;;;;;;;-1.56;61.46;100824.58;1720963;81;26440;-77
2021/03/11 05:48:41;;;;;;;;;;;;;;;-1.54;61.14;100814.45;1724632;81;27304;-76
2021/03/11 05:51:09;;;;;;;45.17;22.65;;;;;;;-1.53;61.08;100810.87;1712687;81;26098;-78
2021/03/11 05:53:37;;;;;;;46.45;23.92;;;;;;;-1.54;61.14;100809.20;1721861;81;25738;-78
2021/03/11 05:56:06;;;;;;;44.70;24.72;;;;;;;-1.51;61.28;100809.82;1719753;81;25824;-78
2021/03/11 05:58:34;;;;;;;47.58;24.25;;;;;;;-1.47;61.34;100811.75;1746005;81;25731;-77
2021/03/11 06:01:04;;;;;;;54.70;25.95;;;;;;;-1.43;61.27;100806.19;1694306;82;26861;-77
2021/03/11 06:03:33;;;;;;;49.15;23.40;;;;;;;-1.44;61.24;100790.54;1696810;81;26492;-79
2021/03/11 06:06:01;;;;;;;53.95;24.98;;;;;;;-1.36;61.13;100793.00;1739796;81;25779;-78
2021/03/11 06:08:28;;;;;;;46.15;22.52;;;;;;;-1.34;60.93;100784.54;1743456;81;25783;-77
2021/03/11 06:10:59;;;;;;;46.35;23.77;;;;;;;-1.32;60.73;100784.42;1699930;83;25823;-78
2021/03/11 06:13:27;;;;;;;49.40;24.82;;;;;;;-1.30;60.54;100778.59;1685956;81;27461;-80
2021/03/11 06:16:05;;;;;;;41.00;22.27;;;;;;;-1.28;60.60;100772.78;1730442;81;25394;-79
2021/03/11 06:18:33;;;;;;;46.20;24.20;;;;;;;-1.23;60.64;100771.96;1699345;84;25853;-78
2021/03/11 06:21:01;;;;;;;47.80;22.27;;;;;;;-1.16;60.77;100779.33;1736884;81;25781;-79
2021/03/11 06:23:32;;;;;;;44.53;22.00;;;;;;;-1.08;60.71;100748.54;1720524;82;26116;-78
2021/03/11 06:25:59;;;;;;;;;;;;;;;-1.08;60.71;100748.54;1723831;81;27537;-78
2021/03/11 06:28:51;;;;;;;40.98;20.75;;;;;;;-0.97;60.58;100752.09;1698954;83;26214;-78
2021/03/11 06:31:31;;;;;;;44.00;20.12;;;;;;;-0.93;60.40;100750.92;1742298;81;25842;-78
2021/03/11 06:34:02;;;;;;;44.50;23.42;;;;;;;-0.89;60.22;100735.29;1765691;81;25750;-78
2021/03/11 06:36:31;;;;;;;;;;;;;;;-0.80;60.11;100742.98;1632633;84;25901;-78
2021/03/11 06:38:59;;;;;;;41.95;22.20;;;;;;;-0.73;59.95;100745.55;1727656;81;27636;-78
2021/03/11 06:41:45;;;;;;;41.28;20.75;;;;;;;-0.68;59.86;100739.95;1732346;81;25755;-78
2021/03/11 06:44:13;;;;;;;43.83;21.85;;;;;;;-0.64;59.51;100736.96;1737417;79;25900;-77
2021/03/11 06:46:59;;;;;;;41.80;21.97;;;;;;;-0.58;59.58;100734.38;1768800;79;26531;-79
2021/03/11 06:49:27;;;;;;;43.20;22.02;;;;;;;-0.51;59.59;100736.92;1720873;79;26195;-79
2021/03/11 06:52:15;;;;;;;50.38;22.90;;;;;;;-0.41;59.12;100732.19;1720341;81;27606;-78
2021/03/11 06:54:58;;;;;;;42.78;21.90;;;;;;;-0.41;59.12;100732.19;1738165;80;25428;-77
2021/03/11 06:57:41;;;;;;;37.28;22.95;;;;;;;-0.36;58.91;100728.71;1736604;79;25830;-78
2021/03/11 07:00:23;;;;;;;42.08;22.27;;;;;;;-0.30;58.75;100728.75;1707983;81;25977;-78
2021/03/11 07:02:57;;;;;;;45.52;21.90;;;;;;;-0.24;59.01;100726.50;1718012;81;26146;-78
2021/03/11 07:05:28;;;;;;;37.08;21.15;;;;;;;-0.22;58.89;100712.75;1711770;81;27361;-78
2021/03/11 07:08:16;;;;;;;38.23;20.77;;;;;;;-0.08;58.92;100721.75;1760377;80;26581;-77
2021/03/11 07:10:47;;;;;;;40.65;21.77;;;;;;;0.03;58.58;100720.92;1723891;81;25833;-76
2021/03/11 07:13:15;;;;;;;36.93;20.77;;;;;;;0.13;58.49;100718.45;1720588;80;26607;-76
2021/03/11 07:15:43;;;;;;;41.85;20.95;;;;;;;0.22;58.50;100715.93;1743223;80;25710;-77
2021/03/11 07:18:24;;;;;;;36.83;18.98;;;;;;;0.31;57.66;100708.64;1778097;80;27528;-76
2021/03/11 07:20:54;;;;;;;37.70;20.40;;;;;;;0.37;57.54;100709.47;1696030;80;25990;-78
2021/03/11 07:23:22;;;;;;;44.20;20.55;;;;;;;0.46;57.79;100720.62;1740968;81;25806;-79
2021/03/11 07:25:50;;;;;;;39.92;20.25;;;;;;;0.54;58.22;100710.31;1719878;80;26256;-76
2021/03/11 07:28:28;;;;;;;33.18;18.98;;;;;;;0.63;56.92;100704.33;1763340;80;25942;-78
2021/03/11 07:31:06;;;;;;;35.75;20.15;;;;;;;0.75;57.15;100702.50;1775834;79;25606;-78
2021/03/11 07:33:36;;;;;;;34.05;19.67;;;;;;;0.76;57.02;100697.60;1708418;82;25770;-76
2021/03/11 07:36:07;;;;;;;35.90;20.12;;;;;;;0.82;56.40;100695.78;1671528;83;27640;-78
2021/03/11 07:38:35;;;;;;;;;;;;;;;0.88;56.70;100691.84;1688399;83;25826;-79
2021/03/11 07:41:06;;;;;;;32.38;17.27;;;;;;;0.93;56.21;100691.82;1716264;81;26523;-77
2021/03/11 07:43:34;;;;;;;36.55;19.50;;;;;;;0.95;56.04;100688.58;1688766;83;34908;-76
2021/03/11 07:46:05;;;;;;;37.93;20.88;;;;;;;1.00;56.68;100686.42;1693141;83;25866;-75
2021/03/11 07:48:33;;;;;;;33.65;18.48;;;;;;;1.06;56.50;100681.95;1680711;83;28285;-77
2021/03/11 07:51:02;;;;;;;33.88;19.57;;;;;;;1.10;55.88;100680.75;1687397;81;25863;-77
2021/03/11 07:53:29;;;;;;;30.12;18.15;;;;;;;1.16;55.89;100676.76;1660816;83;25995;-77
2021/03/11 07:55:58;;;;;;;31.07;18.15;;;;;;;1.20;55.70;100664.98;1713893;81;25839;-77
2021/03/11 07:58:25;;;;;;;35.03;17.92;;;;;;;1.26;56.12;100657.91;1668181;83;25958;-77
2021/03/11 08:00:53;;;;;;;30.80;17.35;;;;;;;1.33;55.55;100657.75;1697359;81;27524;-78
2021/03/11 08:03:27;;;;;;;27.20;16.07;;;;;;;1.35;55.78;100652.70;1691123;83;26397;-77
2021/03/11 08:06:00;;;;;;;33.53;19.05;;;;;;;1.40;55.62;100647.89;1695892;82;25848;-77
2021/03/11 08:08:29;;;;;;;28.95;16.42;;;;;;;1.44;55.74;100649.31;1680148;83;26808;-77
2021/03/11 08:11:02;;;;;;;30.17;16.95;;;;;;;1.49;54.97;100656.84;1675360;83;26130;-78
2021/03/11 08:13:40;;;;;;;23.73;15.40;;;;;;;1.51;54.26;100655.77;1710403;83;28506;-78
2021/03/11 08:16:22;;;;;;;27.65;15.88;;;;;;;1.54;54.18;100643.61;1694489;83;25922;-76
2021/03/11 08:18:51;;;;;;;32.30;16.67;;;;;;;1.58;54.07;100638.93;1686839;81;25817;-78
2021/03/11 08:21:30;;;;;;;27.45;15.70;;;;;;;1.57;52.76;100634.60;1659158;83;25833;-77
2021/03/11 08:23:58;;;;;;;33.33;17.42;;;;;;;1.59;52.77;100628.70;1666756;85;25851;-78
2021/03/11 08:26:44;;;;;;;27.42;16.55;;;;;;;1.61;52.80;100626.77;1617782;87;27106;-78
2021/03/11 08:29:26;;;;;;;31.60;17.35;;;;;;;1.62;52.26;100624.98;1622924;86;26412;-78
2021/03/11 08:31:53;;;;;;;31.15;17.77;;;;;;;1.65;52.55;100636.61;1645476;85;25986;-78
2021/03/11 08:34:37;;;;;;;33.53;16.67;;;;;;;1.70;52.66;100622.05;1645571;86;26266;-78
2021/03/11 08:37:24;;;;;;;27.15;17.55;;;;;;;1.73;52.36;100615.67;1632663;87;26417;-76
2021/03/11 08:39:52;;;;;;;27.27;17.70;;;;;;;1.73;51.02;100605.95;1635628;86;27129;-77
2021/03/11 08:45:42;;;;;;;29.20;18.20;;;;;;;1.87;51.41;100598.16;1823405;77;25602;-77
2021/03/11 08:48:18;;;;;;;31.95;19.98;;;;;;;1.85;51.97;100597.45;1793258;78;25753;-78
2021/03/11 08:50:52;;;;;;;33.05;20.52;;;;;;;1.89;52.62;100594.42;1762306;78;27517;-78
2021/03/11 08:53:42;;;;;;;30.82;17.80;;;;;;;1.96;52.83;100585.48;1766336;79;25750;-77
2021/03/11 08:56:23;;;;;;;29.52;17.85;;;;;;;2.01;51.85;100564.80;1793119;78;25888;-78
2021/03/11 08:58:56;;;;;;;34.48;19.67;;;;;;;2.03;51.90;100561.55;1781416;80;25897;-78
2021/03/11 09:01:51;;;;;;;30.70;17.85;;;;;;;2.03;52.38;100553.11;1792864;78;25820;-78
2021/03/11 09:04:35;;;;;;;31.48;19.55;;;;;;;2.09;52.37;100540.72;1768958;79;27344;-77
2021/03/11 09:07:11;;;;;;;32.15;18.20;;;;;;;2.11;51.82;100533.97;1792134;79;25792;-78
2021/03/11 09:09:51;;;;;;;31.90;20.50;;;;;;;2.11;51.09;100530.00;1767259;80;25824;-79
2021/03/11 09:12:37;;;;;;;34.43;19.92;;;;;;;2.11;51.37;100521.60;1782457;80;26522;-78
2021/03/11 09:15:10;;;;;;;39.63;21.12;;;;;;;2.14;51.12;100518.67;1784753;79;26312;-78
2021/03/11 09:17:39;;;;;;;38.60;21.48;;;;;;;2.11;51.36;100514.15;1763540;80;26702;-77
2021/03/11 09:20:14;;;;;;;36.93;22.87;;;;;;;2.11;50.87;100510.19;1691029;81;25882;-77
2021/03/11 09:22:47;;;;;;;40.00;23.12;;;;;;;2.09;51.35;100499.77;1703563;82;25737;-78
2021/03/11 09:25:25;;;;;;;50.70;28.73;;;;;;;2.09;51.72;100497.13;1727793;81;25742;-78
2021/03/11 09:28:01;;;;;;;75.72;45.35;;;;;;;2.14;52.25;100481.68;1751314;81;25781;-76
2021/03/11 09:30:38;;;;;;;69.82;42.90;;;;;;;2.19;52.05;100485.23;1739600;81;27604;-78
2021/03/11 09:33:20;;;;;;;47.17;28.20;;;;;;;2.20;52.33;100481.13;1737682;81;26350;-77
2021/03/11 09:35:48;;;;;;;50.73;29.82;;;;;;;2.24;52.59;100469.82;1757713;81;25784;-78
2021/03/11 09:38:27;;;;;;;54.95;27.82;;;;;;;2.29;52.62;100464.46;1745212;81;25736;-77
2021/03/11 09:43:36;;;;;;;36.08;22.70;;;;;;;2.37;52.02;100451.89;1784560;79;25762;-78
2021/03/11 09:46:14;;;;;;;45.98;28.02;;;;;;;2.32;52.06;100445.70;1701554;80;25830;-78
2021/03/11 09:48:45;;;;;;;41.95;25.97;;;;;;;2.34;52.58;100441.59;1722079;80;27537;-77
2021/03/11 09:51:19;;;;;;;43.87;27.90;;;;;;;2.37;51.75;100439.16;1696016;81;25953;-78
2021/03/11 09:53:57;;;;;;;43.08;27.20;;;;;;;2.37;52.20;100441.33;1701550;83;25853;-78
2021/03/11 09:56:32;;;;;;;68.25;39.70;;;;;;;2.41;52.66;100430.81;1637677;83;25969;-78
2021/03/11 09:59:04;;;;;;;61.30;36.33;;;;;;;2.48;52.68;100417.88;1670884;83;26155;-76
2021/03/11 10:01:42;;;;;;;60.92;34.78;;;;;;;2.55;52.43;100417.17;1664443;85;27375;-78
2021/03/11 10:04:27;;;;;;;58.33;33.25;;;;;;;2.59;52.43;100406.66;1694742;84;25974;-80
2021/03/11 10:07:05;;;;;;;65.52;35.38;;;;;;;2.62;51.77;100392.33;1671499;83;25769;-78
2021/03/11 10:09:41;;;;;;;48.92;28.50;;;;;;;2.62;51.84;100393.17;1698394;82;25775;-80
2021/03/11 10:12:10;;;;;;;54.63;34.30;;;;;;;2.65;52.04;100386.77;1701236;82;25844;-83
2021/03/11 10:14:38;;;;;;;60.73;38.30;;;;;;;2.68;51.68;100387.31;1702115;83;27548;-79
2021/03/11 10:17:11;;;;;;;60.28;34.60;;;;;;;2.68;51.75;100385.14;1634999;84;25881;-79
2021/03/11 10:19:40;;;;;;;55.43;33.67;;;;;;;2.68;51.65;100378.05;1666816;83;25464;-78
2021/03/11 10:22:17;;;;;;;48.23;29.10;;;;;;;2.68;51.65;100369.28;1672212;84;26390;-77
2021/03/11 10:24:50;;;;;;;52.33;32.35;;;;;;;2.67;51.39;100367.14;1706416;83;26060;-78
2021/03/11 10:27:23;;;;;;;50.58;32.50;;;;;;;2.68;50.86;100363.51;1695756;82;27552;-78
2021/03/11 10:30:28;;;;;;;50.55;27.75;;;;;;;2.69;50.97;100363.03;1704261;81;26114;-78
2021/03/11 10:33:01;;;;;;;47.35;27.95;;;;;;;2.68;50.36;100344.16;1725304;81;26541;-78
2021/03/11 10:35:40;;;;;;;41.20;26.65;;;;;;;2.68;50.90;100333.58;1708278;81;25840;-78
2021/03/11 10:38:21;;;;;;;41.80;23.62;;;;;;;2.70;50.32;100331.63;1714273;83;25888;-77
2021/03/11 10:40:50;;;;;;;42.05;23.00;;;;;;;2.72;50.62;100323.05;1683604;83;28632;-77
2021/03/11 10:43:25;;;;;;;41.28;22.75;;;;;;;2.71;51.04;100322.73;1683157;83;25915;-79
2021/03/11 10:45:53;;;;;;;41.92;22.22;;;;;;;2.74;50.75;100319.30;1693508;83;25789;-79
2021/03/11 10:48:21;;;;;;;43.83;24.63;;;;;;;2.74;50.89;100314.48;1667013;83;26492;-79
2021/03/11 10:50:54;;;;;;;47.15;25.05;;;;;;;2.77;51.71;100309.77;1666136;83;26425;-79
2021/03/11 10:53:39;;;;;;;62.80;30.95;;;;;;;2.75;51.00;100305.11;1684478;83;28541;-78
2021/03/11 10:56:11;;;;;;;45.20;26.35;;;;;;;2.76;51.60;100301.98;1716387;82;25880;-78
2021/03/11 10:58:39;;;;;;;61.85;31.05;;;;;;;2.77;51.40;100291.25;1683643;82;25846;-77
2021/03/11 11:01:25;;;;;;;62.43;30.72;;;;;;;2.75;51.52;100287.92;1663024;84;25876;-78
2021/03/11 11:03:56;;;;;;;51.85;29.98;;;;;;;2.78;52.17;100284.16;1684493;82;26447;-77
2021/03/11 11:06:24;;;;;;;62.15;31.75;;;;;;;2.77;51.92;100275.39;1717562;82;28394;-78
2021/03/11 11:08:52;;;;;;;53.52;27.90;;;;;;;2.80;51.76;100270.30;1665856;82;26361;-78
2021/03/11 11:11:22;;;;;;;43.08;27.27;;;;;;;2.80;51.75;100266.33;1696506;82;26549;-78
2021/03/11 11:13:51;;;;;;;39.33;22.30;;;;;;;2.75;52.10;100254.02;1716100;82;25794;-78
2021/03/11 11:16:18;;;;;;;54.08;28.65;;;;;;;2.74;52.06;100246.57;1716879;83;25863;-78
2021/03/11 11:18:46;;;;;;;60.40;32.17;;;;;;;2.73;52.03;100242.27;1662201;82;28635;-78
2021/03/11 11:21:13;;;;;;;54.77;27.90;;;;;;;2.70;51.60;100230.66;1666548;83;26430;-78
2021/03/11 11:23:41;;;;;;;49.53;28.05;;;;;;;2.71;52.35;100219.59;1722418;82;25870;-77
2021/03/11 11:26:11;;;;;;;55.00;29.02;;;;;;;2.72;52.19;100208.86;1723742;82;26105;-77
2021/03/11 11:28:38;;;;;;;49.15;27.75;;;;;;;2.76;52.24;100197.01;1673398;83;25792;-79
2021/03/11 11:31:06;;;;;;;41.28;22.98;;;;;;;2.80;52.66;100184.34;1679276;83;27556;-76
2021/03/11 11:33:33;;;;;;;40.10;23.75;;;;;;;2.81;52.15;100178.90;1696575;82;26329;-78
2021/03/11 11:36:01;;;;;;;47.90;25.80;;;;;;;2.81;52.44;100166.99;1698697;83;25815;-78
2021/03/11 11:38:30;;;;;;;44.77;27.17;;;;;;;2.84;52.94;100152.65;1680601;81;25830;-78
2021/03/11 11:40:57;;;;;;;38.33;22.82;;;;;;;2.87;52.86;100139.11;1669027;83;25815;-79